sensor_id;sensor_type;location;lat;lon;timestamp;pressure;altitude;pressure_sealevel;temperature;humidity
54816;BME280;40715;55.752;37.884;2023-10-19T00:01:16;98016.25;;;25.70;27.54
54816;BME280;40715;55.752;37.884;2023-10-19T00:03:44;98009.69;;;25.64;27.65
54816;BME280;40715;55.752;37.884;2023-10-19T00:06:11;98017.59;;;25.58;27.71
54816;BME280;40715;55.752;37.884;2023-10-19T00:08:38;98018.63;;;25.48;27.72
54816;BME280;40715;55.752;37.884;2023-10-19T00:11:11;98010.53;;;25.48;27.74
54816;BME280;40715;55.752;37.884;2023-10-19T00:13:48;98017.47;;;25.51;27.91
54816;BME280;40715;55.752;37.884;2023-10-19T00:16:21;98014.75;;;25.51;28.18
54816;BME280;40715;55.752;37.884;2023-10-19T00:19:06;98016.44;;;25.60;27.77
54816;BME280;40715;55.752;37.884;2023-10-19T00:21:33;98011.03;;;25.60;27.81
54816;BME280;40715;55.752;37.884;2023-10-19T00:24:19;98009.69;;;25.64;28.33
54816;BME280;40715;55.752;37.884;2023-10-19T00:26:49;98011.56;;;25.64;28.04
54816;BME280;40715;55.752;37.884;2023-10-19T00:29:20;98006.97;;;25.64;27.91
54816;BME280;40715;55.752;37.884;2023-10-19T00:31:59;98003.47;;;25.56;28.11
54816;BME280;40715;55.752;37.884;2023-10-19T00:34:27;98012.19;;;25.49;28.11
54816;BME280;40715;55.752;37.884;2023-10-19T00:36:55;98009.84;;;25.38;27.55
54816;BME280;40715;55.752;37.884;2023-10-19T00:39:23;98003.59;;;25.21;27.63
54816;BME280;40715;55.752;37.884;2023-10-19T00:41:50;98000.03;;;25.12;28.12
54816;BME280;40715;55.752;37.884;2023-10-19T00:44:22;98000.91;;;25.21;28.37
54816;BME280;40715;55.752;37.884;2023-10-19T00:46:51;98009.00;;;25.21;27.96
54816;BME280;40715;55.752;37.884;2023-10-19T00:49:30;98006.97;;;25.23;28.22
54816;BME280;40715;55.752;37.884;2023-10-19T00:51:58;98006.44;;;25.20;28.21
54816;BME280;40715;55.752;37.884;2023-10-19T00:54:34;98003.44;;;25.23;28.38
54816;BME280;40715;55.752;37.884;2023-10-19T00:57:13;98001.41;;;25.25;28.12
54816;BME280;40715;55.752;37.884;2023-10-19T00:59:47;98010.81;;;25.21;27.95
54816;BME280;40715;55.752;37.884;2023-10-19T01:02:21;98013.50;;;25.21;28.01
54816;BME280;40715;55.752;37.884;2023-10-19T01:04:49;98015.03;;;25.15;27.69
54816;BME280;40715;55.752;37.884;2023-10-19T01:07:18;98006.59;;;25.02;27.72
54816;BME280;40715;55.752;37.884;2023-10-19T01:09:49;98003.69;;;24.87;28.21
54816;BME280;40715;55.752;37.884;2023-10-19T01:12:20;98005.03;;;24.83;28.24
54816;BME280;40715;55.752;37.884;2023-10-19T01:15:13;98005.38;;;24.88;28.46
54816;BME280;40715;55.752;37.884;2023-10-19T01:17:42;98002.69;;;24.88;28.22
54816;BME280;40715;55.752;37.884;2023-10-19T01:20:15;98001.88;;;24.87;28.21
54816;BME280;40715;55.752;37.884;2023-10-19T01:25:49;98003.84;;;24.77;27.92
54816;BME280;40715;55.752;37.884;2023-10-19T01:28:35;97998.44;;;24.77;28.26
54816;BME280;40715;55.752;37.884;2023-10-19T01:31:20;98002.66;;;24.79;27.74
54816;BME280;40715;55.752;37.884;2023-10-19T01:33:59;97997.41;;;24.70;27.72
54816;BME280;40715;55.752;37.884;2023-10-19T01:36:27;97999.28;;;24.69;27.79
54816;BME280;40715;55.752;37.884;2023-10-19T01:38:56;97991.38;;;24.68;28.02
54816;BME280;40715;55.752;37.884;2023-10-19T01:41:27;98001.31;;;24.67;27.64
54816;BME280;40715;55.752;37.884;2023-10-19T01:43:54;98001.78;;;24.62;28.02
54816;BME280;40715;55.752;37.884;2023-10-19T01:46:23;97998.25;;;24.62;28.28
54816;BME280;40715;55.752;37.884;2023-10-19T01:49:02;97994.56;;;24.63;28.16
54816;BME280;40715;55.752;37.884;2023-10-19T01:51:32;97995.16;;;24.57;28.09
54816;BME280;40715;55.752;37.884;2023-10-19T01:54:00;98001.78;;;24.62;27.94
54816;BME280;40715;55.752;37.884;2023-10-19T01:56:30;98001.97;;;24.69;28.49
54816;BME280;40715;55.752;37.884;2023-10-19T01:58:57;97996.44;;;24.79;28.38
54816;BME280;40715;55.752;37.884;2023-10-19T02:01:25;98002.00;;;24.77;28.46
54816;BME280;40715;55.752;37.884;2023-10-19T02:03:58;97994.25;;;24.74;28.24
54816;BME280;40715;55.752;37.884;2023-10-19T02:06:27;97997.28;;;24.71;28.27
54816;BME280;40715;55.752;37.884;2023-10-19T02:11:54;97991.53;;;24.66;27.88
54816;BME280;40715;55.752;37.884;2023-10-19T02:14:26;97991.88;;;24.63;28.25
54816;BME280;40715;55.752;37.884;2023-10-19T02:16:59;97988.16;;;24.64;27.87
54816;BME280;40715;55.752;37.884;2023-10-19T02:19:28;97990.00;;;24.63;28.00
54816;BME280;40715;55.752;37.884;2023-10-19T02:21:57;97990.53;;;24.67;28.15
54816;BME280;40715;55.752;37.884;2023-10-19T02:24:25;97994.94;;;24.76;28.25
54816;BME280;40715;55.752;37.884;2023-10-19T02:26:57;97990.22;;;24.70;28.01
54816;BME280;40715;55.752;37.884;2023-10-19T02:29:24;97994.59;;;24.71;27.83
54816;BME280;40715;55.752;37.884;2023-10-19T02:31:52;97990.38;;;24.69;28.00
54816;BME280;40715;55.752;37.884;2023-10-19T02:34:21;97993.41;;;24.74;28.40
54816;BME280;40715;55.752;37.884;2023-10-19T02:36:50;97993.63;;;24.89;28.44
54816;BME280;40715;55.752;37.884;2023-10-19T02:39:17;97991.44;;;25.01;28.24
54816;BME280;40715;55.752;37.884;2023-10-19T02:41:47;97996.31;;;25.05;27.93
54816;BME280;40715;55.752;37.884;2023-10-19T02:44:19;97993.63;;;25.13;28.25
54816;BME280;40715;55.752;37.884;2023-10-19T02:46:47;97992.13;;;25.19;28.13
54816;BME280;40715;55.752;37.884;2023-10-19T02:49:21;98003.44;;;25.23;28.01
54816;BME280;40715;55.752;37.884;2023-10-19T02:51:50;97995.00;;;25.26;28.76
54816;BME280;40715;55.752;37.884;2023-10-19T02:54:19;97998.03;;;25.31;29.55
54816;BME280;40715;55.752;37.884;2023-10-19T02:56:48;98003.44;;;25.39;29.80
54816;BME280;40715;55.752;37.884;2023-10-19T02:59:17;97989.97;;;25.39;29.96
54816;BME280;40715;55.752;37.884;2023-10-19T03:01:56;97998.06;;;25.47;30.40
54816;BME280;40715;55.752;37.884;2023-10-19T03:04:39;97996.88;;;25.50;30.22
54816;BME280;40715;55.752;37.884;2023-10-19T03:07:08;97994.38;;;25.48;30.39
54816;BME280;40715;55.752;37.884;2023-10-19T03:09:36;98001.75;;;25.46;30.38
54816;BME280;40715;55.752;37.884;2023-10-19T03:12:04;97987.94;;;25.49;30.93
54816;BME280;40715;55.752;37.884;2023-10-19T03:14:36;97995.19;;;25.57;31.09
54816;BME280;40715;55.752;37.884;2023-10-19T03:17:04;97989.97;;;25.64;31.31
54816;BME280;40715;55.752;37.884;2023-10-19T03:19:34;97997.03;;;25.65;31.84
54816;BME280;40715;55.752;37.884;2023-10-19T03:22:02;97987.75;;;25.67;31.79
54816;BME280;40715;55.752;37.884;2023-10-19T03:24:32;97989.09;;;25.72;31.39
54816;BME280;40715;55.752;37.884;2023-10-19T03:27:05;97995.69;;;25.69;31.16
54816;BME280;40715;55.752;37.884;2023-10-19T03:29:40;97986.75;;;25.69;31.30
54816;BME280;40715;55.752;37.884;2023-10-19T03:32:13;97989.09;;;25.72;31.62
54816;BME280;40715;55.752;37.884;2023-10-19T03:34:40;97992.31;;;25.75;31.55
54816;BME280;40715;55.752;37.884;2023-10-19T03:37:14;97995.69;;;25.77;31.17
54816;BME280;40715;55.752;37.884;2023-10-19T03:39:41;97992.31;;;25.75;31.05
54816;BME280;40715;55.752;37.884;2023-10-19T03:42:08;97990.28;;;25.77;31.18
54816;BME280;40715;55.752;37.884;2023-10-19T03:44:35;97996.34;;;25.79;31.23
54816;BME280;40715;55.752;37.884;2023-10-19T03:50:05;98003.59;;;25.79;31.30
54816;BME280;40715;55.752;37.884;2023-10-19T03:52:47;98000.25;;;25.77;31.06
54816;BME280;40715;55.752;37.884;2023-10-19T03:55:14;98004.59;;;25.78;31.12
54816;BME280;40715;55.752;37.884;2023-10-19T03:57:50;98008.47;;;25.83;31.08
54816;BME280;40715;55.752;37.884;2023-10-19T04:00:21;98003.25;;;25.82;31.32
54816;BME280;40715;55.752;37.884;2023-10-19T04:02:52;98004.75;;;25.84;30.86
54816;BME280;40715;55.752;37.884;2023-10-19T04:05:25;97997.50;;;25.85;30.93
54816;BME280;40715;55.752;37.884;2023-10-19T04:07:53;97999.38;;;25.84;31.31
54816;BME280;40715;55.752;37.884;2023-10-19T04:10:26;98003.94;;;25.84;30.93
54816;BME280;40715;55.752;37.884;2023-10-19T04:12:58;98004.25;;;25.81;30.90
54816;BME280;40715;55.752;37.884;2023-10-19T04:15:28;98004.25;;;25.81;31.15
54816;BME280;40715;55.752;37.884;2023-10-19T04:18:01;98004.75;;;25.84;30.71
54816;BME280;40715;55.752;37.884;2023-10-19T04:20:28;98004.75;;;25.84;30.30
54816;BME280;40715;55.752;37.884;2023-10-19T04:23:13;97999.88;;;25.88;30.34
54816;BME280;40715;55.752;37.884;2023-10-19T04:25:42;98004.59;;;25.86;30.23
54816;BME280;40715;55.752;37.884;2023-10-19T04:28:14;98011.84;;;25.86;29.96
54816;BME280;40715;55.752;37.884;2023-10-19T04:30:41;98010.31;;;25.91;30.05
54816;BME280;40715;55.752;37.884;2023-10-19T04:33:08;98014.03;;;25.90;29.94
54816;BME280;40715;55.752;37.884;2023-10-19T04:35:38;98010.16;;;25.93;30.04
54816;BME280;40715;55.752;37.884;2023-10-19T04:38:08;98016.38;;;25.93;29.91
54816;BME280;40715;55.752;37.884;2023-10-19T04:40:35;98012.16;;;25.99;29.79
54816;BME280;40715;55.752;37.884;2023-10-19T04:43:02;98012.88;;;26.01;29.81
54816;BME280;40715;55.752;37.884;2023-10-19T04:45:32;98010.28;;;25.99;29.72
54816;BME280;40715;55.752;37.884;2023-10-19T04:47:59;98018.56;;;26.06;29.64
54816;BME280;40715;55.752;37.884;2023-10-19T04:50:26;98016.38;;;26.10;29.36
54816;BME280;40715;55.752;37.884;2023-10-19T04:52:53;98010.31;;;26.08;29.62
54816;BME280;40715;55.752;37.884;2023-10-19T04:55:20;98015.53;;;26.09;29.03
54816;BME280;40715;55.752;37.884;2023-10-19T04:57:47;98013.19;;;26.06;29.28
54816;BME280;40715;55.752;37.884;2023-10-19T05:00:17;98008.13;;;26.03;29.05
54816;BME280;40715;55.752;37.884;2023-10-19T05:02:44;98013.84;;;26.00;29.16
54816;BME280;40715;55.752;37.884;2023-10-19T05:05:11;98017.41;;;26.00;28.93
54816;BME280;40715;55.752;37.884;2023-10-19T05:07:40;98014.72;;;26.00;29.08
54816;BME280;40715;55.752;37.884;2023-10-19T05:10:07;98009.31;;;26.00;28.85
54816;BME280;40715;55.752;37.884;2023-10-19T05:12:34;98014.34;;;26.04;29.08
54816;BME280;40715;55.752;37.884;2023-10-19T05:15:01;98011.34;;;26.07;28.86
54816;BME280;40715;55.752;37.884;2023-10-19T05:17:30;98018.91;;;26.11;28.88
54816;BME280;40715;55.752;37.884;2023-10-19T05:19:57;98011.28;;;26.15;28.86
54816;BME280;40715;55.752;37.884;2023-10-19T05:22:24;98021.91;;;26.16;29.37
54816;BME280;40715;55.752;37.884;2023-10-19T05:24:52;98025.94;;;26.21;29.58
54816;BME280;40715;55.752;37.884;2023-10-19T05:27:19;98028.47;;;26.22;29.36
54816;BME280;40715;55.752;37.884;2023-10-19T05:29:47;98017.50;;;26.24;29.54
54816;BME280;40715;55.752;37.884;2023-10-19T05:32:13;98022.91;;;26.24;29.60
54816;BME280;40715;55.752;37.884;2023-10-19T05:34:41;98020.53;;;26.29;29.57
54816;BME280;40715;55.752;37.884;2023-10-19T05:37:07;98026.63;;;26.31;29.67
54816;BME280;40715;55.752;37.884;2023-10-19T05:39:35;98022.41;;;26.28;29.79
54816;BME280;40715;55.752;37.884;2023-10-19T05:42:03;98026.63;;;26.31;29.42
54816;BME280;40715;55.752;37.884;2023-10-19T05:44:31;98029.31;;;26.31;29.79
54816;BME280;40715;55.752;37.884;2023-10-19T05:46:59;98033.56;;;26.25;29.65
54816;BME280;40715;55.752;37.884;2023-10-19T05:49:27;98033.41;;;26.18;29.73
54816;BME280;40715;55.752;37.884;2023-10-19T05:51:56;98041.50;;;26.18;29.90
54816;BME280;40715;55.752;37.884;2023-10-19T05:54:23;98028.31;;;26.24;29.85
54816;BME280;40715;55.752;37.884;2023-10-19T05:56:51;98034.38;;;26.26;29.85
54816;BME280;40715;55.752;37.884;2023-10-19T05:59:19;98029.63;;;26.28;29.77
54816;BME280;40715;55.752;37.884;2023-10-19T06:01:47;98030.97;;;26.32;29.51
54816;BME280;40715;55.752;37.884;2023-10-19T06:04:14;98033.50;;;26.33;29.56
54816;BME280;40715;55.752;37.884;2023-10-19T06:06:44;98035.19;;;26.34;29.48
54816;BME280;40715;55.752;37.884;2023-10-19T06:09:11;98030.97;;;26.32;29.45
54816;BME280;40715;55.752;37.884;2023-10-19T06:11:38;98030.50;;;26.28;28.58
54816;BME280;40715;55.752;37.884;2023-10-19T06:14:09;98039.63;;;26.11;29.00
54816;BME280;40715;55.752;37.884;2023-10-19T06:16:36;98036.44;;;25.99;29.13
54816;BME280;40715;55.752;37.884;2023-10-19T06:19:03;98039.47;;;25.96;29.38
54816;BME280;40715;55.752;37.884;2023-10-19T06:21:32;98042.19;;;25.96;29.43
54816;BME280;40715;55.752;37.884;2023-10-19T06:24:00;98043.53;;;25.92;29.31
54816;BME280;40715;55.752;37.884;2023-10-19T06:26:27;98035.78;;;25.89;29.66
54816;BME280;40715;55.752;37.884;2023-10-19T06:28:55;98039.00;;;25.84;29.73
54816;BME280;40715;55.752;37.884;2023-10-19T06:31:29;98036.97;;;25.86;29.72
54816;BME280;40715;55.752;37.884;2023-10-19T06:33:57;98039.13;;;25.91;29.49
54816;BME280;40715;55.752;37.884;2023-10-19T06:36:25;98032.56;;;25.85;28.87
54816;BME280;40715;55.752;37.884;2023-10-19T06:38:51;98032.59;;;25.77;28.63
54816;BME280;40715;55.752;37.884;2023-10-19T06:41:21;98032.44;;;25.62;28.85
54816;BME280;40715;55.752;37.884;2023-10-19T06:43:49;98038.69;;;25.54;28.93
54816;BME280;40715;55.752;37.884;2023-10-19T06:46:15;98040.38;;;25.47;28.87
54816;BME280;40715;55.752;37.884;2023-10-19T06:48:43;98033.97;;;25.40;29.30
54816;BME280;40715;55.752;37.884;2023-10-19T06:51:09;98019.47;;;25.41;29.54
54816;BME280;40715;55.752;37.884;2023-10-19T06:53:38;98040.88;;;25.59;29.71
54816;BME280;40715;55.752;37.884;2023-10-19T06:56:05;98031.59;;;25.61;29.24
54816;BME280;40715;55.752;37.884;2023-10-19T06:58:33;98030.91;;;25.67;29.65
54816;BME280;40715;55.752;37.884;2023-10-19T07:01:01;98041.84;;;25.91;29.84
54816;BME280;40715;55.752;37.884;2023-10-19T07:03:32;98034.41;;;26.17;29.87
54816;BME280;40715;55.752;37.884;2023-10-19T07:06:00;98042.94;;;26.38;29.81
54816;BME280;40715;55.752;37.884;2023-10-19T07:08:33;98039.00;;;26.57;29.45
54816;BME280;40715;55.752;37.884;2023-10-19T07:11:00;98043.00;;;26.69;29.63
54816;BME280;40715;55.752;37.884;2023-10-19T07:13:27;98045.31;;;26.80;29.51
54816;BME280;40715;55.752;37.884;2023-10-19T07:15:55;98042.03;;;26.93;29.63
54816;BME280;40715;55.752;37.884;2023-10-19T07:18:22;98055.34;;;27.03;29.71
54816;BME280;40715;55.752;37.884;2023-10-19T07:20:51;98050.91;;;27.10;29.99
54816;BME280;40715;55.752;37.884;2023-10-19T07:23:19;98052.72;;;27.18;29.78
54816;BME280;40715;55.752;37.884;2023-10-19T07:25:48;98056.41;;;27.25;29.81
54816;BME280;40715;55.752;37.884;2023-10-19T07:28:22;98048.19;;;27.33;29.58
54816;BME280;40715;55.752;37.884;2023-10-19T07:30:53;98054.59;;;27.41;29.68
54816;BME280;40715;55.752;37.884;2023-10-19T07:33:20;98060.13;;;27.47;29.74
54816;BME280;40715;55.752;37.884;2023-10-19T07:35:48;98057.25;;;27.49;29.64
54816;BME280;40715;55.752;37.884;2023-10-19T07:38:22;98060.25;;;27.54;29.68
54816;BME280;40715;55.752;37.884;2023-10-19T07:40:49;98052.63;;;27.58;29.64
54816;BME280;40715;55.752;37.884;2023-10-19T07:43:20;98052.28;;;27.61;29.59
54816;BME280;40715;55.752;37.884;2023-10-19T07:45:48;98061.69;;;27.65;29.72
54816;BME280;40715;55.752;37.884;2023-10-19T07:48:15;98054.25;;;27.67;29.58
54816;BME280;40715;55.752;37.884;2023-10-19T07:50:44;98057.41;;;27.70;29.62
54816;BME280;40715;55.752;37.884;2023-10-19T07:53:11;98054.56;;;27.72;29.54
54816;BME280;40715;55.752;37.884;2023-10-19T07:55:38;98065.66;;;27.77;29.56
54816;BME280;40715;55.752;37.884;2023-10-19T07:58:06;98056.97;;;27.82;29.64
54816;BME280;40715;55.752;37.884;2023-10-19T08:00:33;98064.38;;;27.88;29.24
54816;BME280;40715;55.752;37.884;2023-10-19T08:03:02;98061.31;;;27.91;29.51
54816;BME280;40715;55.752;37.884;2023-10-19T08:05:30;98063.25;;;27.97;29.74
54816;BME280;40715;55.752;37.884;2023-10-19T08:07:57;98063.03;;;28.07;29.57
54816;BME280;40715;55.752;37.884;2023-10-19T08:10:27;98065.84;;;28.14;29.61
54816;BME280;40715;55.752;37.884;2023-10-19T08:12:54;98063.41;;;28.19;29.67
54816;BME280;40715;55.752;37.884;2023-10-19T08:15:22;98060.25;;;28.15;29.66
54816;BME280;40715;55.752;37.884;2023-10-19T08:17:50;98064.84;;;28.15;29.75
54816;BME280;40715;55.752;37.884;2023-10-19T08:20:18;98067.63;;;28.21;29.65
54816;BME280;40715;55.752;37.884;2023-10-19T08:22:52;98072.66;;;28.24;29.88
54816;BME280;40715;55.752;37.884;2023-10-19T08:25:19;98079.00;;;28.32;29.74
54816;BME280;40715;55.752;37.884;2023-10-19T08:27:48;98076.16;;;28.33;29.91
54816;BME280;40715;55.752;37.884;2023-10-19T08:30:17;98074.56;;;28.39;29.77
54816;BME280;40715;55.752;37.884;2023-10-19T08:32:47;98070.81;;;28.40;29.52
54816;BME280;40715;55.752;37.884;2023-10-19T08:35:15;98065.38;;;28.40;29.62
54816;BME280;40715;55.752;37.884;2023-10-19T08:37:47;98071.66;;;28.40;29.35
54816;BME280;40715;55.752;37.884;2023-10-19T08:40:15;98063.88;;;28.37;29.22
54816;BME280;40715;55.752;37.884;2023-10-19T08:42:45;98071.00;;;28.38;29.05
54816;BME280;40715;55.752;37.884;2023-10-19T08:45:13;98074.63;;;28.46;29.13
54816;BME280;40715;55.752;37.884;2023-10-19T08:47:44;98072.22;;;28.51;29.00
54816;BME280;40715;55.752;37.884;2023-10-19T08:50:15;98076.03;;;28.56;28.98
54816;BME280;40715;55.752;37.884;2023-10-19T08:52:43;98080.06;;;28.61;28.96
54816;BME280;40715;55.752;37.884;2023-10-19T08:55:09;98083.72;;;28.68;29.05
54816;BME280;40715;55.752;37.884;2023-10-19T08:57:39;98080.25;;;28.74;28.93
54816;BME280;40715;55.752;37.884;2023-10-19T09:00:07;98079.88;;;28.77;29.03
54816;BME280;40715;55.752;37.884;2023-10-19T09:02:34;98083.69;;;28.83;29.07
54816;BME280;40715;55.752;37.884;2023-10-19T09:05:07;98076.44;;;28.83;29.06
54816;BME280;40715;55.752;37.884;2023-10-19T09:07:34;98079.59;;;28.87;29.04
54816;BME280;40715;55.752;37.884;2023-10-19T09:10:01;98089.22;;;28.89;28.97
54816;BME280;40715;55.752;37.884;2023-10-19T09:12:30;98083.59;;;28.91;29.16
54816;BME280;40715;55.752;37.884;2023-10-19T09:14:56;98090.31;;;28.95;29.04
54816;BME280;40715;55.752;37.884;2023-10-19T09:17:30;98083.69;;;28.98;29.06
54816;BME280;40715;55.752;37.884;2023-10-19T09:19:59;98090.97;;;28.97;28.91
54816;BME280;40715;55.752;37.884;2023-10-19T09:22:35;98096.38;;;28.97;28.95
54816;BME280;40715;55.752;37.884;2023-10-19T09:25:05;98098.47;;;28.95;28.65
54816;BME280;40715;55.752;37.884;2023-10-19T09:27:33;98096.97;;;28.92;28.81
54816;BME280;40715;55.752;37.884;2023-10-19T09:30:02;98093.22;;;28.93;29.17
54816;BME280;40715;55.752;37.884;2023-10-19T09:32:29;98104.31;;;28.99;28.96
54816;BME280;40715;55.752;37.884;2023-10-19T09:35:00;98099.75;;;28.99;29.19
54816;BME280;40715;55.752;37.884;2023-10-19T09:37:29;98101.47;;;29.00;28.93
54816;BME280;40715;55.752;37.884;2023-10-19T09:39:56;98105.91;;;29.08;29.08
54816;BME280;40715;55.752;37.884;2023-10-19T09:42:24;98100.31;;;29.09;29.17
54816;BME280;40715;55.752;37.884;2023-10-19T09:44:59;98102.63;;;29.13;29.24
54816;BME280;40715;55.752;37.884;2023-10-19T09:47:38;98097.00;;;29.14;29.07
54816;BME280;40715;55.752;37.884;2023-10-19T09:50:08;98099.53;;;29.16;28.82
54816;BME280;40715;55.752;37.884;2023-10-19T09:52:39;98101.78;;;29.12;29.01
54816;BME280;40715;55.752;37.884;2023-10-19T09:55:12;98096.19;;;29.14;29.05
54816;BME280;40715;55.752;37.884;2023-10-19T09:57:57;98097.56;;;29.24;28.92
54816;BME280;40715;55.752;37.884;2023-10-19T10:00:26;98101.69;;;29.20;28.91
54816;BME280;40715;55.752;37.884;2023-10-19T10:02:58;98101.03;;;29.18;29.10
54816;BME280;40715;55.752;37.884;2023-10-19T10:15:54;98114.13;;;29.15;28.80
54816;BME280;40715;55.752;37.884;2023-10-19T10:18:25;98105.34;;;29.13;28.89
54816;BME280;40715;55.752;37.884;2023-10-19T10:23:41;98109.75;;;29.14;28.87
54816;BME280;40715;55.752;37.884;2023-10-19T10:26:10;98104.50;;;29.12;28.96
54816;BME280;40715;55.752;37.884;2023-10-19T10:28:38;98106.00;;;29.15;28.68
54816;BME280;40715;55.752;37.884;2023-10-19T10:31:21;98103.00;;;29.24;28.76
54816;BME280;40715;55.752;37.884;2023-10-19T10:33:52;98097.28;;;29.19;28.38
54816;BME280;40715;55.752;37.884;2023-10-19T10:36:21;98108.31;;;29.18;28.59
54816;BME280;40715;55.752;37.884;2023-10-19T10:38:50;98104.75;;;29.17;28.53
54816;BME280;40715;55.752;37.884;2023-10-19T10:41:24;98103.72;;;29.18;28.50
54816;BME280;40715;55.752;37.884;2023-10-19T10:43:56;98101.50;;;29.22;28.46
54816;BME280;40715;55.752;37.884;2023-10-19T10:46:27;98104.03;;;29.23;28.71
54816;BME280;40715;55.752;37.884;2023-10-19T10:48:56;98107.88;;;29.29;28.52
54816;BME280;40715;55.752;37.884;2023-10-19T10:51:25;98104.75;;;29.32;28.57
54816;BME280;40715;55.752;37.884;2023-10-19T10:53:54;98114.19;;;29.36;28.62
54816;BME280;40715;55.752;37.884;2023-10-19T10:56:23;98109.81;;;29.35;28.41
54816;BME280;40715;55.752;37.884;2023-10-19T10:58:50;98102.13;;;29.39;28.59
54816;BME280;40715;55.752;37.884;2023-10-19T11:01:31;98096.56;;;29.47;28.99
54816;BME280;40715;55.752;37.884;2023-10-19T11:04:10;98100.97;;;29.48;28.69
54816;BME280;40715;55.752;37.884;2023-10-19T11:09:15;98105.94;;;29.44;29.09
54816;BME280;40715;55.752;37.884;2023-10-19T11:11:45;98114.91;;;29.45;29.03
54816;BME280;40715;55.752;37.884;2023-10-19T11:14:13;98107.59;;;29.46;29.10
54816;BME280;40715;55.752;37.884;2023-10-19T11:16:40;98112.28;;;29.52;29.09
54816;BME280;40715;55.752;37.884;2023-10-19T11:19:07;98115.22;;;29.57;29.01
54816;BME280;40715;55.752;37.884;2023-10-19T11:21:36;98117.38;;;29.61;29.26
54816;BME280;40715;55.752;37.884;2023-10-19T11:24:03;98121.38;;;29.66;29.04
54816;BME280;40715;55.752;37.884;2023-10-19T11:26:30;98118.09;;;29.70;29.08
54816;BME280;40715;55.752;37.884;2023-10-19T11:28:58;98121.66;;;29.71;29.03
54816;BME280;40715;55.752;37.884;2023-10-19T11:31:27;98116.47;;;29.76;28.92
54816;BME280;40715;55.752;37.884;2023-10-19T11:33:55;98121.06;;;29.75;28.83
54816;BME280;40715;55.752;37.884;2023-10-19T11:36:27;98117.13;;;29.78;28.54
54816;BME280;40715;55.752;37.884;2023-10-19T11:38:55;98112.50;;;29.78;28.65
54816;BME280;40715;55.752;37.884;2023-10-19T11:41:22;98107.75;;;29.81;28.80
54816;BME280;40715;55.752;37.884;2023-10-19T11:43:49;98107.75;;;29.81;28.87
54816;BME280;40715;55.752;37.884;2023-10-19T11:46:17;98104.00;;;29.82;28.66
54816;BME280;40715;55.752;37.884;2023-10-19T11:48:54;98116.16;;;29.86;28.75
54816;BME280;40715;55.752;37.884;2023-10-19T11:51:20;98105.31;;;29.86;28.50
54816;BME280;40715;55.752;37.884;2023-10-19T11:53:47;98112.22;;;29.88;28.57
54816;BME280;40715;55.752;37.884;2023-10-19T11:56:14;98106.59;;;29.90;28.69
54816;BME280;40715;55.752;37.884;2023-10-19T11:58:43;98108.94;;;29.93;28.55
54816;BME280;40715;55.752;37.884;2023-10-19T12:01:14;98099.09;;;29.92;28.76
54816;BME280;40715;55.752;37.884;2023-10-19T12:03:44;98109.97;;;29.92;28.67
54816;BME280;40715;55.752;37.884;2023-10-19T12:06:12;98113.91;;;29.89;28.55
54816;BME280;40715;55.752;37.884;2023-10-19T12:08:45;98109.31;;;29.90;28.97
54816;BME280;40715;55.752;37.884;2023-10-19T12:11:14;98109.09;;;29.91;28.73
54816;BME280;40715;55.752;37.884;2023-10-19T12:13:46;98112.69;;;29.92;28.63
54816;BME280;40715;55.752;37.884;2023-10-19T12:16:15;98101.56;;;29.87;28.36
54816;BME280;40715;55.752;37.884;2023-10-19T12:18:43;98114.31;;;29.86;28.34
54816;BME280;40715;55.752;37.884;2023-10-19T12:21:10;98107.19;;;29.85;28.51
54816;BME280;40715;55.752;37.884;2023-10-19T12:23:42;98111.09;;;29.83;28.85
54816;BME280;40715;55.752;37.884;2023-10-19T12:26:17;98106.63;;;30.46;27.70
54816;BME280;40715;55.752;37.884;2023-10-19T12:28:44;98108.16;;;29.99;28.58
54816;BME280;40715;55.752;37.884;2023-10-19T12:31:15;98109.69;;;29.87;28.68
54816;BME280;40715;55.752;37.884;2023-10-19T12:33:45;98107.19;;;29.85;28.75
54816;BME280;40715;55.752;37.884;2023-10-19T12:36:12;98108.88;;;29.86;28.89
54816;BME280;40715;55.752;37.884;2023-10-19T12:38:55;98121.78;;;29.84;28.59
54816;BME280;40715;55.752;37.884;2023-10-19T12:41:23;98120.50;;;29.80;29.10
54816;BME280;40715;55.752;37.884;2023-10-19T12:43:51;98126.56;;;29.82;28.84
54816;BME280;40715;55.752;37.884;2023-10-19T12:46:19;98117.59;;;29.82;28.93
54816;BME280;40715;55.752;37.884;2023-10-19T12:48:46;98116.34;;;29.84;29.11
54816;BME280;40715;55.752;37.884;2023-10-19T12:51:13;98115.53;;;29.84;29.11
54816;BME280;40715;55.752;37.884;2023-10-19T12:53:41;98118.03;;;29.85;29.13
54816;BME280;40715;55.752;37.884;2023-10-19T12:56:08;98120.56;;;29.87;29.08
54816;BME280;40715;55.752;37.884;2023-10-19T12:58:41;98119.72;;;29.86;29.35
54816;BME280;40715;55.752;37.884;2023-10-19T13:01:08;98112.16;;;29.82;29.29
54816;BME280;40715;55.752;37.884;2023-10-19T13:03:44;98115.22;;;29.78;29.45
54816;BME280;40715;55.752;37.884;2023-10-19T13:06:13;98113.50;;;29.71;29.84
54816;BME280;40715;55.752;37.884;2023-10-19T13:08:40;98119.31;;;29.68;29.70
54816;BME280;40715;55.752;37.884;2023-10-19T13:11:08;98120.34;;;29.67;30.04
54816;BME280;40715;55.752;37.884;2023-10-19T13:13:42;98123.25;;;29.65;30.36
54816;BME280;40715;55.752;37.884;2023-10-19T13:16:10;98122.44;;;29.65;30.57
54816;BME280;40715;55.752;37.884;2023-10-19T13:18:37;98123.72;;;29.69;30.68
54816;BME280;40715;55.752;37.884;2023-10-19T13:21:07;98130.25;;;29.74;30.72
54816;BME280;40715;55.752;37.884;2023-10-19T13:23:38;98127.97;;;29.78;30.95
54816;BME280;40715;55.752;37.884;2023-10-19T13:26:05;98129.47;;;29.81;30.88
54816;BME280;40715;55.752;37.884;2023-10-19T13:28:50;98128.91;;;29.85;30.76